sensor_id;sensor_type;location;lat;lon;timestamp;P1;durP1;ratioP1;P2;durP2;ratioP2
7729;SDS011;3908;52.310;7.230;2024-01-11T00:00:22;16.63;;;8.77;;
7729;SDS011;3908;52.310;7.230;2024-01-11T00:03:12;13.43;;;8.57;;
7729;SDS011;3908;52.310;7.230;2024-01-11T00:06:00;14.83;;;8.40;;
7729;SDS011;3908;52.310;7.230;2024-01-11T00:08:50;19.27;;;9.90;;
7729;SDS011;3908;52.310;7.230;2024-01-11T00:11:37;12.90;;;8.00;;
7729;SDS011;3908;52.310;7.230;2024-01-11T00:14:26;23.03;;;9.03;;
7729;SDS011;3908;52.310;7.230;2024-01-11T00:17:13;17.00;;;8.33;;
7729;SDS011;3908;52.310;7.230;2024-01-11T00:20:01;18.83;;;9.17;;
7729;SDS011;3908;52.310;7.230;2024-01-11T00:22:48;17.63;;;7.83;;
7729;SDS011;3908;52.310;7.230;2024-01-11T00:25:38;15.83;;;7.37;;
7729;SDS011;3908;52.310;7.230;2024-01-11T00:28:25;14.93;;;8.47;;
7729;SDS011;3908;52.310;7.230;2024-01-11T00:31:14;18.50;;;8.83;;
7729;SDS011;3908;52.310;7.230;2024-01-11T00:34:04;18.07;;;7.60;;
7729;SDS011;3908;52.310;7.230;2024-01-11T00:36:51;14.87;;;8.50;;
7729;SDS011;3908;52.310;7.230;2024-01-11T00:39:41;15.73;;;8.93;;
7729;SDS011;3908;52.310;7.230;2024-01-11T00:42:29;16.30;;;8.63;;
7729;SDS011;3908;52.310;7.230;2024-01-11T00:45:16;15.70;;;8.80;;
7729;SDS011;3908;52.310;7.230;2024-01-11T00:48:08;15.60;;;8.30;;
7729;SDS011;3908;52.310;7.230;2024-01-11T00:50:55;18.90;;;8.77;;
7729;SDS011;3908;52.310;7.230;2024-01-11T00:53:44;15.40;;;8.40;;
7729;SDS011;3908;52.310;7.230;2024-01-11T00:56:31;15.97;;;8.20;;
7729;SDS011;3908;52.310;7.230;2024-01-11T00:59:18;15.07;;;8.20;;
7729;SDS011;3908;52.310;7.230;2024-01-11T01:02:05;16.53;;;7.83;;
7729;SDS011;3908;52.310;7.230;2024-01-11T01:04:54;14.93;;;8.70;;
7729;SDS011;3908;52.310;7.230;2024-01-11T01:07:41;14.50;;;8.03;;
7729;SDS011;3908;52.310;7.230;2024-01-11T01:10:28;14.67;;;7.53;;
7729;SDS011;3908;52.310;7.230;2024-01-11T01:13:15;14.17;;;9.00;;
7729;SDS011;3908;52.310;7.230;2024-01-11T01:16:02;16.50;;;7.53;;
7729;SDS011;3908;52.310;7.230;2024-01-11T01:18:50;16.23;;;8.37;;
7729;SDS011;3908;52.310;7.230;2024-01-11T01:21:39;15.50;;;7.73;;
7729;SDS011;3908;52.310;7.230;2024-01-11T01:24:26;13.07;;;8.80;;
7729;SDS011;3908;52.310;7.230;2024-01-11T01:27:13;16.97;;;10.37;;
7729;SDS011;3908;52.310;7.230;2024-01-11T01:30:00;16.10;;;7.73;;
7729;SDS011;3908;52.310;7.230;2024-01-11T01:32:47;11.80;;;7.17;;
7729;SDS011;3908;52.310;7.230;2024-01-11T01:35:34;17.10;;;8.47;;
7729;SDS011;3908;52.310;7.230;2024-01-11T01:38:23;16.73;;;7.83;;
7729;SDS011;3908;52.310;7.230;2024-01-11T01:41:10;11.17;;;7.93;;
7729;SDS011;3908;52.310;7.230;2024-01-11T01:43:57;15.63;;;9.23;;
7729;SDS011;3908;52.310;7.230;2024-01-11T01:46:44;15.80;;;7.97;;
7729;SDS011;3908;52.310;7.230;2024-01-11T01:49:35;15.27;;;9.07;;
7729;SDS011;3908;52.310;7.230;2024-01-11T01:52:23;15.93;;;9.13;;
7729;SDS011;3908;52.310;7.230;2024-01-11T01:55:12;20.37;;;9.77;;
7729;SDS011;3908;52.310;7.230;2024-01-11T01:58:04;12.50;;;9.03;;
7729;SDS011;3908;52.310;7.230;2024-01-11T02:00:51;14.07;;;9.07;;
7729;SDS011;3908;52.310;7.230;2024-01-11T02:03:42;14.43;;;7.93;;
7729;SDS011;3908;52.310;7.230;2024-01-11T02:06:30;23.60;;;8.83;;
7729;SDS011;3908;52.310;7.230;2024-01-11T02:09:20;19.07;;;8.87;;
7729;SDS011;3908;52.310;7.230;2024-01-11T02:12:10;13.80;;;7.57;;
7729;SDS011;3908;52.310;7.230;2024-01-11T02:15:00;14.07;;;8.33;;
7729;SDS011;3908;52.310;7.230;2024-01-11T02:17:48;16.10;;;8.63;;
7729;SDS011;3908;52.310;7.230;2024-01-11T02:20:36;13.67;;;7.60;;
7729;SDS011;3908;52.310;7.230;2024-01-11T02:23:24;11.33;;;7.67;;
7729;SDS011;3908;52.310;7.230;2024-01-11T02:26:14;13.80;;;7.67;;
7729;SDS011;3908;52.310;7.230;2024-01-11T02:29:01;17.30;;;8.30;;
7729;SDS011;3908;52.310;7.230;2024-01-11T02:31:49;11.13;;;7.93;;
7729;SDS011;3908;52.310;7.230;2024-01-11T02:34:36;16.90;;;7.60;;
7729;SDS011;3908;52.310;7.230;2024-01-11T02:37:23;16.33;;;8.67;;
7729;SDS011;3908;52.310;7.230;2024-01-11T02:40:11;15.07;;;8.63;;
7729;SDS011;3908;52.310;7.230;2024-01-11T02:43:08;13.17;;;8.43;;
7729;SDS011;3908;52.310;7.230;2024-01-11T02:45:56;16.53;;;8.27;;
7729;SDS011;3908;52.310;7.230;2024-01-11T02:48:44;11.43;;;7.93;;
7729;SDS011;3908;52.310;7.230;2024-01-11T02:51:31;16.67;;;7.13;;
7729;SDS011;3908;52.310;7.230;2024-01-11T02:54:19;16.97;;;7.90;;
7729;SDS011;3908;52.310;7.230;2024-01-11T02:57:06;13.17;;;7.27;;
7729;SDS011;3908;52.310;7.230;2024-01-11T02:59:55;10.87;;;6.43;;
7729;SDS011;3908;52.310;7.230;2024-01-11T03:02:42;21.20;;;9.23;;
7729;SDS011;3908;52.310;7.230;2024-01-11T03:05:29;15.00;;;8.87;;
7729;SDS011;3908;52.310;7.230;2024-01-11T03:08:20;13.33;;;7.37;;
7729;SDS011;3908;52.310;7.230;2024-01-11T03:11:07;22.27;;;10.37;;
7729;SDS011;3908;52.310;7.230;2024-01-11T03:13:54;18.57;;;10.47;;
7729;SDS011;3908;52.310;7.230;2024-01-11T03:16:42;18.80;;;9.07;;
7729;SDS011;3908;52.310;7.230;2024-01-11T03:19:30;16.47;;;8.30;;
7729;SDS011;3908;52.310;7.230;2024-01-11T03:22:17;14.97;;;8.13;;
7729;SDS011;3908;52.310;7.230;2024-01-11T03:25:04;15.27;;;8.33;;
7729;SDS011;3908;52.310;7.230;2024-01-11T03:27:52;18.80;;;9.00;;
7729;SDS011;3908;52.310;7.230;2024-01-11T03:30:39;18.10;;;10.03;;
7729;SDS011;3908;52.310;7.230;2024-01-11T03:33:30;21.33;;;8.43;;
7729;SDS011;3908;52.310;7.230;2024-01-11T03:36:17;12.17;;;6.97;;
7729;SDS011;3908;52.310;7.230;2024-01-11T03:39:07;15.67;;;9.43;;
7729;SDS011;3908;52.310;7.230;2024-01-11T03:41:54;15.10;;;8.73;;
7729;SDS011;3908;52.310;7.230;2024-01-11T03:44:42;16.90;;;10.13;;
7729;SDS011;3908;52.310;7.230;2024-01-11T03:47:29;13.37;;;7.47;;
7729;SDS011;3908;52.310;7.230;2024-01-11T03:50:19;13.47;;;8.73;;
7729;SDS011;3908;52.310;7.230;2024-01-11T03:53:06;20.53;;;9.20;;
7729;SDS011;3908;52.310;7.230;2024-01-11T03:55:53;14.80;;;8.50;;
7729;SDS011;3908;52.310;7.230;2024-01-11T03:58:42;17.17;;;8.73;;
7729;SDS011;3908;52.310;7.230;2024-01-11T04:01:30;20.73;;;8.37;;
7729;SDS011;3908;52.310;7.230;2024-01-11T04:04:17;11.17;;;6.87;;
7729;SDS011;3908;52.310;7.230;2024-01-11T04:07:05;14.37;;;8.23;;
7729;SDS011;3908;52.310;7.230;2024-01-11T04:09:52;15.30;;;9.53;;
7729;SDS011;3908;52.310;7.230;2024-01-11T04:12:40;14.50;;;8.60;;
7729;SDS011;3908;52.310;7.230;2024-01-11T04:15:27;10.17;;;7.00;;
7729;SDS011;3908;52.310;7.230;2024-01-11T04:18:14;11.77;;;8.23;;
7729;SDS011;3908;52.310;7.230;2024-01-11T04:21:01;18.80;;;10.27;;
7729;SDS011;3908;52.310;7.230;2024-01-11T04:23:51;19.40;;;9.17;;
7729;SDS011;3908;52.310;7.230;2024-01-11T04:26:38;14.40;;;8.63;;
7729;SDS011;3908;52.310;7.230;2024-01-11T04:29:25;15.20;;;9.10;;
7729;SDS011;3908;52.310;7.230;2024-01-11T04:32:12;17.47;;;9.67;;
7729;SDS011;3908;52.310;7.230;2024-01-11T04:35:03;16.97;;;8.80;;
7729;SDS011;3908;52.310;7.230;2024-01-11T04:37:51;14.43;;;7.80;;
7729;SDS011;3908;52.310;7.230;2024-01-11T04:40:48;14.87;;;8.93;;
7729;SDS011;3908;52.310;7.230;2024-01-11T04:43:38;16.87;;;9.27;;
7729;SDS011;3908;52.310;7.230;2024-01-11T04:46:26;20.53;;;9.23;;
7729;SDS011;3908;52.310;7.230;2024-01-11T04:49:13;15.87;;;9.90;;
7729;SDS011;3908;52.310;7.230;2024-01-11T04:52:00;12.73;;;9.37;;
7729;SDS011;3908;52.310;7.230;2024-01-11T04:54:49;17.73;;;8.87;;
7729;SDS011;3908;52.310;7.230;2024-01-11T04:57:38;14.53;;;8.83;;
7729;SDS011;3908;52.310;7.230;2024-01-11T05:00:28;17.93;;;7.63;;
7729;SDS011;3908;52.310;7.230;2024-01-11T05:03:18;21.43;;;8.87;;
7729;SDS011;3908;52.310;7.230;2024-01-11T05:06:05;18.13;;;10.13;;
7729;SDS011;3908;52.310;7.230;2024-01-11T05:08:52;17.70;;;8.63;;
7729;SDS011;3908;52.310;7.230;2024-01-11T05:11:40;15.13;;;9.23;;
7729;SDS011;3908;52.310;7.230;2024-01-11T05:14:31;10.70;;;7.93;;
7729;SDS011;3908;52.310;7.230;2024-01-11T05:17:19;13.80;;;8.57;;
7729;SDS011;3908;52.310;7.230;2024-01-11T05:20:09;15.70;;;8.27;;
7729;SDS011;3908;52.310;7.230;2024-01-11T05:22:57;16.83;;;8.20;;
7729;SDS011;3908;52.310;7.230;2024-01-11T05:25:46;16.63;;;9.83;;
7729;SDS011;3908;52.310;7.230;2024-01-11T05:28:34;16.10;;;8.63;;
7729;SDS011;3908;52.310;7.230;2024-01-11T05:31:25;13.47;;;8.40;;
7729;SDS011;3908;52.310;7.230;2024-01-11T05:34:14;18.67;;;9.50;;
7729;SDS011;3908;52.310;7.230;2024-01-11T05:37:01;15.50;;;8.50;;
7729;SDS011;3908;52.310;7.230;2024-01-11T05:39:48;20.17;;;9.50;;
7729;SDS011;3908;52.310;7.230;2024-01-11T05:42:35;12.93;;;8.03;;
7729;SDS011;3908;52.310;7.230;2024-01-11T05:45:23;16.83;;;9.57;;
7729;SDS011;3908;52.310;7.230;2024-01-11T05:48:13;17.60;;;9.20;;
7729;SDS011;3908;52.310;7.230;2024-01-11T05:51:01;14.20;;;9.03;;
7729;SDS011;3908;52.310;7.230;2024-01-11T05:53:51;14.13;;;8.80;;
7729;SDS011;3908;52.310;7.230;2024-01-11T05:56:38;17.87;;;9.83;;
7729;SDS011;3908;52.310;7.230;2024-01-11T05:59:25;17.80;;;9.47;;
7729;SDS011;3908;52.310;7.230;2024-01-11T06:02:12;13.93;;;9.27;;
7729;SDS011;3908;52.310;7.230;2024-01-11T06:05:02;15.20;;;10.03;;
7729;SDS011;3908;52.310;7.230;2024-01-11T06:07:50;13.03;;;8.73;;
7729;SDS011;3908;52.310;7.230;2024-01-11T06:10:39;16.87;;;9.67;;
7729;SDS011;3908;52.310;7.230;2024-01-11T06:13:30;17.87;;;9.57;;
7729;SDS011;3908;52.310;7.230;2024-01-11T06:16:17;18.27;;;9.53;;
7729;SDS011;3908;52.310;7.230;2024-01-11T06:19:07;20.23;;;10.20;;
7729;SDS011;3908;52.310;7.230;2024-01-11T06:21:56;12.27;;;7.03;;
7729;SDS011;3908;52.310;7.230;2024-01-11T06:24:43;14.17;;;9.57;;
7729;SDS011;3908;52.310;7.230;2024-01-11T06:27:30;12.43;;;8.53;;
7729;SDS011;3908;52.310;7.230;2024-01-11T06:30:17;14.87;;;9.20;;
7729;SDS011;3908;52.310;7.230;2024-01-11T06:33:04;15.27;;;8.27;;
7729;SDS011;3908;52.310;7.230;2024-01-11T06:35:51;19.70;;;8.97;;
7729;SDS011;3908;52.310;7.230;2024-01-11T06:38:40;16.23;;;9.30;;
7729;SDS011;3908;52.310;7.230;2024-01-11T06:41:27;19.93;;;9.33;;
7729;SDS011;3908;52.310;7.230;2024-01-11T06:44:14;15.50;;;8.17;;
7729;SDS011;3908;52.310;7.230;2024-01-11T06:47:01;12.30;;;8.80;;
7729;SDS011;3908;52.310;7.230;2024-01-11T06:49:51;24.90;;;12.03;;
7729;SDS011;3908;52.310;7.230;2024-01-11T06:52:38;20.10;;;9.43;;
7729;SDS011;3908;52.310;7.230;2024-01-11T06:55:26;21.37;;;11.07;;
7729;SDS011;3908;52.310;7.230;2024-01-11T06:58:15;16.73;;;9.30;;
7729;SDS011;3908;52.310;7.230;2024-01-11T07:01:03;19.67;;;9.87;;
7729;SDS011;3908;52.310;7.230;2024-01-11T07:03:50;18.50;;;8.87;;
7729;SDS011;3908;52.310;7.230;2024-01-11T07:06:37;21.10;;;10.17;;
7729;SDS011;3908;52.310;7.230;2024-01-11T07:09:24;17.47;;;8.87;;
7729;SDS011;3908;52.310;7.230;2024-01-11T07:12:13;13.50;;;7.90;;
7729;SDS011;3908;52.310;7.230;2024-01-11T07:15:00;18.90;;;8.43;;
7729;SDS011;3908;52.310;7.230;2024-01-11T07:17:50;14.93;;;9.43;;
7729;SDS011;3908;52.310;7.230;2024-01-11T07:20:38;16.37;;;8.67;;
7729;SDS011;3908;52.310;7.230;2024-01-11T07:23:26;19.27;;;10.13;;
7729;SDS011;3908;52.310;7.230;2024-01-11T07:26:13;17.80;;;9.90;;
7729;SDS011;3908;52.310;7.230;2024-01-11T07:29:05;17.23;;;8.77;;
7729;SDS011;3908;52.310;7.230;2024-01-11T07:31:52;18.77;;;10.40;;
7729;SDS011;3908;52.310;7.230;2024-01-11T07:34:39;21.23;;;9.17;;
7729;SDS011;3908;52.310;7.230;2024-01-11T07:37:26;14.53;;;8.97;;
7729;SDS011;3908;52.310;7.230;2024-01-11T07:40:13;11.50;;;9.40;;
7729;SDS011;3908;52.310;7.230;2024-01-11T07:43:03;25.70;;;12.10;;
7729;SDS011;3908;52.310;7.230;2024-01-11T07:45:52;19.63;;;9.40;;
7729;SDS011;3908;52.310;7.230;2024-01-11T07:48:42;14.50;;;9.67;;
7729;SDS011;3908;52.310;7.230;2024-01-11T07:51:29;32.53;;;11.27;;
7729;SDS011;3908;52.310;7.230;2024-01-11T07:54:16;15.63;;;9.87;;
7729;SDS011;3908;52.310;7.230;2024-01-11T07:57:03;20.70;;;10.83;;
7729;SDS011;3908;52.310;7.230;2024-01-11T07:59:50;19.50;;;11.73;;
7729;SDS011;3908;52.310;7.230;2024-01-11T08:02:39;27.63;;;14.47;;
7729;SDS011;3908;52.310;7.230;2024-01-11T08:05:28;21.43;;;11.93;;
7729;SDS011;3908;52.310;7.230;2024-01-11T08:08:16;21.90;;;10.07;;
7729;SDS011;3908;52.310;7.230;2024-01-11T08:11:03;18.13;;;10.43;;
7729;SDS011;3908;52.310;7.230;2024-01-11T08:13:50;21.97;;;10.20;;
7729;SDS011;3908;52.310;7.230;2024-01-11T08:16:40;20.07;;;10.47;;
7729;SDS011;3908;52.310;7.230;2024-01-11T08:19:28;21.67;;;10.97;;
7729;SDS011;3908;52.310;7.230;2024-01-11T08:22:15;18.43;;;10.87;;
7729;SDS011;3908;52.310;7.230;2024-01-11T08:25:03;23.97;;;13.07;;
7729;SDS011;3908;52.310;7.230;2024-01-11T08:27:51;19.80;;;9.53;;
7729;SDS011;3908;52.310;7.230;2024-01-11T08:30:38;26.77;;;10.57;;
7729;SDS011;3908;52.310;7.230;2024-01-11T08:33:25;19.50;;;11.47;;
7729;SDS011;3908;52.310;7.230;2024-01-11T08:36:13;17.20;;;11.07;;
7729;SDS011;3908;52.310;7.230;2024-01-11T08:39:03;21.00;;;11.23;;
7729;SDS011;3908;52.310;7.230;2024-01-11T08:41:51;23.63;;;12.83;;
7729;SDS011;3908;52.310;7.230;2024-01-11T08:44:41;29.63;;;13.97;;
7729;SDS011;3908;52.310;7.230;2024-01-11T08:47:28;26.40;;;12.90;;
7729;SDS011;3908;52.310;7.230;2024-01-11T08:50:17;21.77;;;11.80;;
7729;SDS011;3908;52.310;7.230;2024-01-11T08:53:07;18.67;;;11.00;;
7729;SDS011;3908;52.310;7.230;2024-01-11T08:55:54;29.60;;;13.47;;
7729;SDS011;3908;52.310;7.230;2024-01-11T08:58:41;25.23;;;11.80;;
7729;SDS011;3908;52.310;7.230;2024-01-11T09:01:28;23.07;;;11.70;;
7729;SDS011;3908;52.310;7.230;2024-01-11T09:04:15;26.30;;;12.67;;
7729;SDS011;3908;52.310;7.230;2024-01-11T09:07:03;27.47;;;11.57;;
7729;SDS011;3908;52.310;7.230;2024-01-11T09:09:52;24.57;;;12.17;;
7729;SDS011;3908;52.310;7.230;2024-01-11T09:12:39;26.60;;;13.20;;
7729;SDS011;3908;52.310;7.230;2024-01-11T09:15:26;33.70;;;14.33;;
7729;SDS011;3908;52.310;7.230;2024-01-11T09:18:13;31.30;;;14.50;;
7729;SDS011;3908;52.310;7.230;2024-01-11T09:21:01;29.30;;;14.33;;
7729;SDS011;3908;52.310;7.230;2024-01-11T09:23:49;30.37;;;13.63;;
7729;SDS011;3908;52.310;7.230;2024-01-11T09:26:37;31.83;;;13.63;;
7729;SDS011;3908;52.310;7.230;2024-01-11T09:29:24;28.27;;;13.10;;
7729;SDS011;3908;52.310;7.230;2024-01-11T09:32:13;26.63;;;11.33;;
7729;SDS011;3908;52.310;7.230;2024-01-11T09:35:00;22.07;;;11.37;;
7729;SDS011;3908;52.310;7.230;2024-01-11T09:37:48;26.33;;;12.43;;
7729;SDS011;3908;52.310;7.230;2024-01-11T09:40:38;22.97;;;11.73;;
7729;SDS011;3908;52.310;7.230;2024-01-11T09:43:27;31.27;;;12.90;;
7729;SDS011;3908;52.310;7.230;2024-01-11T09:46:14;24.70;;;12.00;;
7729;SDS011;3908;52.310;7.230;2024-01-11T09:49:04;26.33;;;12.27;;
7729;SDS011;3908;52.310;7.230;2024-01-11T09:51:51;26.83;;;13.23;;
7729;SDS011;3908;52.310;7.230;2024-01-11T09:54:42;28.37;;;12.60;;
7729;SDS011;3908;52.310;7.230;2024-01-11T09:57:29;27.00;;;12.27;;
7729;SDS011;3908;52.310;7.230;2024-01-11T10:00:22;38.27;;;14.00;;
7729;SDS011;3908;52.310;7.230;2024-01-11T10:03:09;28.27;;;11.57;;
7729;SDS011;3908;52.310;7.230;2024-01-11T10:05:58;29.77;;;13.60;;
7729;SDS011;3908;52.310;7.230;2024-01-11T10:08:45;32.00;;;11.93;;
7729;SDS011;3908;52.310;7.230;2024-01-11T10:11:32;37.47;;;15.10;;
7729;SDS011;3908;52.310;7.230;2024-01-11T10:14:22;30.00;;;12.47;;
7729;SDS011;3908;52.310;7.230;2024-01-11T10:17:11;26.10;;;13.67;;
7729;SDS011;3908;52.310;7.230;2024-01-11T10:20:01;35.87;;;13.50;;
7729;SDS011;3908;52.310;7.230;2024-01-11T10:22:49;25.07;;;15.63;;
7729;SDS011;3908;52.310;7.230;2024-01-11T10:25:41;28.73;;;14.17;;
7729;SDS011;3908;52.310;7.230;2024-01-11T10:28:32;36.17;;;14.93;;
7729;SDS011;3908;52.310;7.230;2024-01-11T10:31:23;31.40;;;14.77;;
7729;SDS011;3908;52.310;7.230;2024-01-11T10:34:14;33.97;;;16.60;;
7729;SDS011;3908;52.310;7.230;2024-01-11T10:37:01;24.77;;;14.30;;
7729;SDS011;3908;52.310;7.230;2024-01-11T10:39:48;40.17;;;16.27;;
7729;SDS011;3908;52.310;7.230;2024-01-11T10:42:39;30.93;;;16.20;;
7729;SDS011;3908;52.310;7.230;2024-01-11T10:45:31;23.63;;;14.03;;
7729;SDS011;3908;52.310;7.230;2024-01-11T10:48:25;25.47;;;12.33;;
7729;SDS011;3908;52.310;7.230;2024-01-11T10:51:14;22.90;;;13.63;;
7729;SDS011;3908;52.310;7.230;2024-01-11T10:54:07;24.00;;;12.07;;
7729;SDS011;3908;52.310;7.230;2024-01-11T10:56:54;28.03;;;12.80;;
7729;SDS011;3908;52.310;7.230;2024-01-11T10:59:45;24.07;;;12.87;;
7729;SDS011;3908;52.310;7.230;2024-01-11T11:02:35;25.73;;;12.27;;
7729;SDS011;3908;52.310;7.230;2024-01-11T11:05:26;39.47;;;17.73;;
7729;SDS011;3908;52.310;7.230;2024-01-11T11:08:19;26.03;;;11.67;;
7729;SDS011;3908;52.310;7.230;2024-01-11T11:11:08;29.57;;;12.63;;
7729;SDS011;3908;52.310;7.230;2024-01-11T11:13:56;27.67;;;11.53;;
7729;SDS011;3908;52.310;7.230;2024-01-11T11:16:47;29.80;;;12.43;;
7729;SDS011;3908;52.310;7.230;2024-01-11T11:19:34;29.40;;;13.17;;
7729;SDS011;3908;52.310;7.230;2024-01-11T11:22:22;33.27;;;12.50;;
7729;SDS011;3908;52.310;7.230;2024-01-11T11:25:11;26.93;;;12.37;;
7729;SDS011;3908;52.310;7.230;2024-01-11T11:28:11;28.83;;;13.50;;
7729;SDS011;3908;52.310;7.230;2024-01-11T11:30:58;28.33;;;13.97;;
7729;SDS011;3908;52.310;7.230;2024-01-11T11:33:50;29.03;;;14.73;;
7729;SDS011;3908;52.310;7.230;2024-01-11T11:36:39;34.50;;;13.83;;
7729;SDS011;3908;52.310;7.230;2024-01-11T11:39:31;32.50;;;14.53;;
7729;SDS011;3908;52.310;7.230;2024-01-11T11:42:19;36.83;;;13.67;;
7729;SDS011;3908;52.310;7.230;2024-01-11T11:45:13;31.07;;;13.50;;
7729;SDS011;3908;52.310;7.230;2024-01-11T11:51:42;25.73;;;12.30;;
7729;SDS011;3908;52.310;7.230;2024-01-11T11:54:30;40.67;;;12.97;;
7729;SDS011;3908;52.310;7.230;2024-01-11T11:57:20;28.47;;;13.77;;
7729;SDS011;3908;52.310;7.230;2024-01-11T12:00:10;30.27;;;15.07;;
7729;SDS011;3908;52.310;7.230;2024-01-11T12:02:58;27.53;;;13.33;;
7729;SDS011;3908;52.310;7.230;2024-01-11T12:05:46;28.77;;;13.33;;
7729;SDS011;3908;52.310;7.230;2024-01-11T12:08:35;31.60;;;13.80;;
7729;SDS011;3908;52.310;7.230;2024-01-11T12:11:23;32.10;;;14.83;;
7729;SDS011;3908;52.310;7.230;2024-01-11T12:14:11;30.10;;;14.60;;
7729;SDS011;3908;52.310;7.230;2024-01-11T12:16:58;26.73;;;15.57;;
7729;SDS011;3908;52.310;7.230;2024-01-11T12:19:46;33.53;;;19.37;;
7729;SDS011;3908;52.310;7.230;2024-01-11T12:22:33;25.10;;;19.60;;
7729;SDS011;3908;52.310;7.230;2024-01-11T12:25:21;38.43;;;26.80;;
7729;SDS011;3908;52.310;7.230;2024-01-11T12:28:11;31.57;;;25.77;;
7729;SDS011;3908;52.310;7.230;2024-01-11T12:31:00;32.57;;;25.87;;
7729;SDS011;3908;52.310;7.230;2024-01-11T12:33:49;34.80;;;25.87;;
7729;SDS011;3908;52.310;7.230;2024-01-11T12:36:36;28.73;;;25.20;;
7729;SDS011;3908;52.310;7.230;2024-01-11T12:39:27;22.57;;;20.03;;
7729;SDS011;3908;52.310;7.230;2024-01-11T12:42:14;23.80;;;17.83;;
7729;SDS011;3908;52.310;7.230;2024-01-11T12:45:04;22.00;;;13.27;;
7729;SDS011;3908;52.310;7.230;2024-01-11T12:47:53;22.67;;;15.20;;
7729;SDS011;3908;52.310;7.230;2024-01-11T12:50:41;22.53;;;13.60;;
7729;SDS011;3908;52.310;7.230;2024-01-11T12:53:32;26.60;;;13.27;;
7729;SDS011;3908;52.310;7.230;2024-01-11T12:56:19;27.53;;;14.53;;
7729;SDS011;3908;52.310;7.230;2024-01-11T12:59:11;31.87;;;16.00;;
7729;SDS011;3908;52.310;7.230;2024-01-11T13:02:05;25.93;;;12.33;;
7729;SDS011;3908;52.310;7.230;2024-01-11T13:04:57;30.33;;;11.17;;
7729;SDS011;3908;52.310;7.230;2024-01-11T13:07:45;23.77;;;11.03;;
7729;SDS011;3908;52.310;7.230;2024-01-11T13:10:33;28.00;;;12.17;;
7729;SDS011;3908;52.310;7.230;2024-01-11T13:13:24;25.67;;;12.30;;
7729;SDS011;3908;52.310;7.230;2024-01-11T13:16:13;23.17;;;12.37;;
7729;SDS011;3908;52.310;7.230;2024-01-11T13:19:04;30.00;;;13.33;;
7729;SDS011;3908;52.310;7.230;2024-01-11T13:21:53;29.50;;;13.27;;
7729;SDS011;3908;52.310;7.230;2024-01-11T13:24:40;29.00;;;13.77;;
7729;SDS011;3908;52.310;7.230;2024-01-11T13:27:27;33.77;;;13.13;;
7729;SDS011;3908;52.310;7.230;2024-01-11T13:30:14;36.40;;;14.47;;
7729;SDS011;3908;52.310;7.230;2024-01-11T13:33:02;29.90;;;14.40;;
7729;SDS011;3908;52.310;7.230;2024-01-11T13:35:49;42.60;;;16.33;;
7729;SDS011;3908;52.310;7.230;2024-01-11T13:38:38;30.77;;;13.27;;
7729;SDS011;3908;52.310;7.230;2024-01-11T13:41:26;34.23;;;13.47;;
7729;SDS011;3908;52.310;7.230;2024-01-11T13:44:13;30.37;;;13.13;;
7729;SDS011;3908;52.310;7.230;2024-01-11T13:47:00;25.60;;;12.03;;
7729;SDS011;3908;52.310;7.230;2024-01-11T13:49:47;38.30;;;30.30;;
7729;SDS011;3908;52.310;7.230;2024-01-11T13:52:34;25.87;;;12.17;;
7729;SDS011;3908;52.310;7.230;2024-01-11T13:55:28;29.50;;;12.73;;
7729;SDS011;3908;52.310;7.230;2024-01-11T13:58:26;30.43;;;13.47;;
7729;SDS011;3908;52.310;7.230;2024-01-11T14:01:18;29.13;;;14.17;;
7729;SDS011;3908;52.310;7.230;2024-01-11T14:27:37;30.77;;;13.77;;
7729;SDS011;3908;52.310;7.230;2024-01-11T14:30:29;25.50;;;15.20;;
7729;SDS011;3908;52.310;7.230;2024-01-11T14:33:19;28.67;;;13.93;;
7729;SDS011;3908;52.310;7.230;2024-01-11T14:36:07;24.63;;;12.67;;
7729;SDS011;3908;52.310;7.230;2024-01-11T14:38:54;24.93;;;13.40;;
7729;SDS011;3908;52.310;7.230;2024-01-11T14:41:41;31.63;;;14.47;;
7729;SDS011;3908;52.310;7.230;2024-01-11T14:44:34;30.90;;;15.20;;
7729;SDS011;3908;52.310;7.230;2024-01-11T14:47:22;27.30;;;14.43;;
7729;SDS011;3908;52.310;7.230;2024-01-11T14:50:15;26.20;;;14.67;;
7729;SDS011;3908;52.310;7.230;2024-01-11T14:53:03;30.30;;;15.90;;
7729;SDS011;3908;52.310;7.230;2024-01-11T14:55:50;24.70;;;14.50;;
7729;SDS011;3908;52.310;7.230;2024-01-11T14:58:38;31.93;;;15.10;;
7729;SDS011;3908;52.310;7.230;2024-01-11T15:04:32;25.27;;;14.20;;
7729;SDS011;3908;52.310;7.230;2024-01-11T15:07:20;35.03;;;17.63;;
7729;SDS011;3908;52.310;7.230;2024-01-11T15:10:10;27.27;;;16.67;;
7729;SDS011;3908;52.310;7.230;2024-01-11T15:12:57;30.37;;;17.90;;
7729;SDS011;3908;52.310;7.230;2024-01-11T15:15:45;31.77;;;17.83;;
7729;SDS011;3908;52.310;7.230;2024-01-11T15:18:33;33.73;;;18.47;;
7729;SDS011;3908;52.310;7.230;2024-01-11T15:21:20;26.40;;;19.20;;
7729;SDS011;3908;52.310;7.230;2024-01-11T15:24:09;37.77;;;20.00;;
7729;SDS011;3908;52.310;7.230;2024-01-11T15:26:57;24.70;;;18.57;;
7729;SDS011;3908;52.310;7.230;2024-01-11T15:29:45;29.60;;;22.07;;
7729;SDS011;3908;52.310;7.230;2024-01-11T15:32:32;32.07;;;19.70;;
7729;SDS011;3908;52.310;7.230;2024-01-11T15:35:24;30.47;;;20.60;;
7729;SDS011;3908;52.310;7.230;2024-01-11T15:38:11;32.33;;;19.97;;
7729;SDS011;3908;52.310;7.230;2024-01-11T15:41:03;27.63;;;20.53;;
7729;SDS011;3908;52.310;7.230;2024-01-11T15:43:54;35.23;;;21.23;;
7729;SDS011;3908;52.310;7.230;2024-01-11T15:46:50;33.50;;;25.57;;
7729;SDS011;3908;52.310;7.230;2024-01-11T15:49:37;36.20;;;24.87;;
7729;SDS011;3908;52.310;7.230;2024-01-11T15:52:25;30.47;;;21.63;;
7729;SDS011;3908;52.310;7.230;2024-01-11T15:55:12;27.27;;;19.60;;
7729;SDS011;3908;52.310;7.230;2024-01-11T15:58:00;27.40;;;16.27;;
7729;SDS011;3908;52.310;7.230;2024-01-11T16:00:47;30.00;;;15.20;;
7729;SDS011;3908;52.310;7.230;2024-01-11T16:03:34;28.93;;;17.43;;
7729;SDS011;3908;52.310;7.230;2024-01-11T16:06:23;27.93;;;15.67;;
7729;SDS011;3908;52.310;7.230;2024-01-11T16:09:12;27.13;;;15.47;;
7729;SDS011;3908;52.310;7.230;2024-01-11T16:12:00;25.87;;;13.67;;
7729;SDS011;3908;52.310;7.230;2024-01-11T16:14:47;34.90;;;14.50;;
7729;SDS011;3908;52.310;7.230;2024-01-11T16:17:34;32.70;;;13.23;;
7729;SDS011;3908;52.310;7.230;2024-01-11T16:20:21;30.73;;;14.13;;
7729;SDS011;3908;52.310;7.230;2024-01-11T16:25:45;28.80;;;12.83;;
7729;SDS011;3908;52.310;7.230;2024-01-11T16:28:34;22.77;;;11.90;;
7729;SDS011;3908;52.310;7.230;2024-01-11T16:31:22;25.27;;;12.10;;
7729;SDS011;3908;52.310;7.230;2024-01-11T16:34:11;29.93;;;13.17;;
7729;SDS011;3908;52.310;7.230;2024-01-11T16:39:35;27.57;;;13.13;;
7729;SDS011;3908;52.310;7.230;2024-01-11T16:55:20;24.90;;;12.90;;
7729;SDS011;3908;52.310;7.230;2024-01-11T17:18:53;30.63;;;14.83;;
7729;SDS011;3908;52.310;7.230;2024-01-11T17:21:40;27.73;;;12.90;;
7729;SDS011;3908;52.310;7.230;2024-01-11T17:25:02;35.33;;;13.70;;
7729;SDS011;3908;52.310;7.230;2024-01-11T17:27:55;26.43;;;12.40;;
7729;SDS011;3908;52.310;7.230;2024-01-11T17:30:43;29.53;;;12.70;;
7729;SDS011;3908;52.310;7.230;2024-01-11T17:33:31;27.00;;;12.57;;
7729;SDS011;3908;52.310;7.230;2024-01-11T17:36:20;26.17;;;13.23;;
7729;SDS011;3908;52.310;7.230;2024-01-11T17:39:07;29.73;;;13.43;;
7729;SDS011;3908;52.310;7.230;2024-01-11T17:41:54;30.73;;;13.40;;
7729;SDS011;3908;52.310;7.230;2024-01-11T17:44:44;29.00;;;13.27;;
7729;SDS011;3908;52.310;7.230;2024-01-11T17:47:32;24.03;;;12.03;;
7729;SDS011;3908;52.310;7.230;2024-01-11T17:50:19;23.73;;;11.20;;
7729;SDS011;3908;52.310;7.230;2024-01-11T17:53:08;25.70;;;12.07;;
7729;SDS011;3908;52.310;7.230;2024-01-11T17:55:56;21.43;;;11.93;;
7729;SDS011;3908;52.310;7.230;2024-01-11T17:58:46;26.67;;;12.17;;
7729;SDS011;3908;52.310;7.230;2024-01-11T18:01:33;25.13;;;12.13;;
7729;SDS011;3908;52.310;7.230;2024-01-11T18:04:20;21.47;;;11.57;;
7729;SDS011;3908;52.310;7.230;2024-01-11T18:07:10;21.67;;;11.37;;
7729;SDS011;3908;52.310;7.230;2024-01-11T18:09:58;24.07;;;11.57;;